Time;durP1;ratioP1;P1;durP2;ratioP2;P2;SDS_P1;SDS_P2;PMS_P1;PMS_P2;Temp;Humidity;BMP_temperature;BMP_pressure;BME280_temperature;BME280_humidity;BME280_pressure;Samples;Min_cycle;Max_cycle;Signal;HPM_P1;HPM_P2
2022/08/29 00:02:24;;;;;;;2.25;1.58;;;16.20;99.90;;;;;;5060821;28;39352;-78
2022/08/29 00:04:50;;;;;;;3.65;1.80;;;16.20;99.90;;;;;;5059654;28;39317;-78
2022/08/29 00:07:17;;;;;;;4.13;1.50;;;16.10;99.90;;;;;;5054583;28;37976;-78
2022/08/29 00:09:43;;;;;;;3.30;1.20;;;16.10;99.90;;;;;;5057325;28;38438;-78
2022/08/29 00:12:09;;;;;;;3.25;1.27;;;16.10;99.90;;;;;;5056540;28;39422;-77
2022/08/29 00:14:35;;;;;;;2.83;1.20;;;16.00;99.90;;;;;;5058328;28;38342;-77
2022/08/29 00:17:02;;;;;;;2.65;1.35;;;16.00;99.90;;;;;;5053834;28;38523;-77
2022/08/29 00:19:28;;;;;;;3.80;1.63;;;16.00;99.90;;;;;;5056789;28;38208;-77
2022/08/29 00:21:54;;;;;;;3.38;1.27;;;16.00;99.90;;;;;;5078160;28;39783;-77
2022/08/29 00:24:21;;;;;;;5.80;1.80;;;16.00;99.90;;;;;;5060548;28;40016;-77
2022/08/29 00:26:47;;;;;;;2.20;1.38;;;15.90;99.90;;;;;;5079702;28;37372;-78
2022/08/29 00:29:13;;;;;;;2.47;1.40;;;15.90;99.90;;;;;;5060289;28;37800;-79
2022/08/29 00:31:39;;;;;;;3.85;1.33;;;15.90;99.90;;;;;;5084248;28;39603;-79
2022/08/29 00:34:05;;;;;;;2.63;1.17;;;15.80;99.90;;;;;;5070546;28;38467;-78
2022/08/29 00:36:31;;;;;;;5.50;1.50;;;15.80;99.90;;;;;;5066289;28;36864;-78
2022/08/29 00:38:57;;;;;;;3.55;1.30;;;15.80;99.90;;;;;;5078849;28;37107;-78
2022/08/29 00:41:23;;;;;;;2.45;1.20;;;15.80;99.90;;;;;;5062902;28;39522;-78
2022/08/29 00:43:49;;;;;;;3.25;1.15;;;15.70;99.90;;;;;;5052932;28;38971;-78
2022/08/29 00:46:49;;;;;;;2.00;1.23;;;15.70;99.90;;;;;;5073967;28;38449;-78
2022/08/29 00:49:50;;;;;;;5.07;1.80;;;15.60;99.90;;;;;;5075242;28;35597;-78
2022/08/29 00:52:18;;;;;;;3.53;1.40;;;15.50;99.90;;;;;;5034532;28;38569;-78
2022/08/29 00:54:49;;;;;;;2.13;1.50;;;15.50;99.90;;;;;;5073696;28;37521;-78
2022/08/29 00:57:18;;;;;;;2.33;1.40;;;15.50;99.90;;;;;;5076361;28;36863;-78
2022/08/29 00:59:46;;;;;;;2.45;1.40;;;15.50;99.90;;;;;;5065387;28;37570;-79
2022/08/29 01:02:12;;;;;;;1.92;1.25;;;15.40;99.90;;;;;;5078894;28;39622;-78
2022/08/29 01:04:39;;;;;;;2.90;1.88;;;15.40;99.90;;;;;;5075453;28;37880;-78
2022/08/29 01:07:07;;;;;;;3.97;1.52;;;15.40;99.90;;;;;;5057728;28;36614;-79
2022/08/29 01:09:35;;;;;;;1.77;1.20;;;15.40;99.90;;;;;;5078622;28;36960;-77
2022/08/29 01:12:15;;;;;;;3.30;1.60;;;15.40;99.90;;;;;;5079507;28;39806;-77
2022/08/29 01:14:47;;;;;;;4.68;1.98;;;15.40;99.90;;;;;;5056476;28;37178;-78
2022/08/29 01:17:18;;;;;;;3.90;1.60;;;15.30;99.90;;;;;;5069999;28;37672;-78
2022/08/29 01:19:53;;;;;;;4.65;1.38;;;15.40;99.90;;;;;;5060512;28;37362;-77
2022/08/29 01:22:51;;;;;;;5.82;1.60;;;15.30;99.90;;;;;;5058102;28;37840;-77
2022/08/29 01:25:21;;;;;;;3.08;1.50;;;15.30;99.90;;;;;;5076726;28;38225;-79
2022/08/29 01:27:58;;;;;;;3.65;1.48;;;15.30;99.90;;;;;;5060465;28;36539;-78
2022/08/29 01:30:24;;;;;;;3.33;1.58;;;15.40;99.90;;;;;;5084086;28;37708;-78
2022/08/29 01:32:50;;;;;;;4.80;1.83;;;15.30;99.90;;;;;;5069300;28;37623;-78
2022/08/29 01:35:16;;;;;;;3.00;1.33;;;15.30;99.90;;;;;;5063485;28;37298;-78
2022/08/29 01:37:43;;;;;;;4.00;1.60;;;15.20;99.90;;;;;;5076471;28;38066;-77
2022/08/29 01:40:11;;;;;;;4.65;1.70;;;15.20;99.90;;;;;;5071346;28;37285;-78
2022/08/29 01:42:38;;;;;;;2.50;1.23;;;15.10;99.90;;;;;;5058686;28;37726;-78
2022/08/29 01:45:05;;;;;;;3.53;1.60;;;15.10;99.90;;;;;;5077683;28;38240;-78
2022/08/29 01:47:34;;;;;;;2.70;1.10;;;15.10;99.90;;;;;;5063197;28;37173;-78
2022/08/29 01:50:02;;;;;;;2.95;1.55;;;15.00;99.90;;;;;;5083198;28;37391;-78
2022/08/29 01:52:30;;;;;;;2.00;1.33;;;14.90;99.90;;;;;;5063119;28;42189;-78
2022/08/29 01:54:57;;;;;;;3.55;1.60;;;14.90;99.90;;;;;;5070749;28;39624;-78
2022/08/29 01:57:23;;;;;;;3.55;1.58;;;14.90;99.90;;;;;;5052618;28;38325;-78
2022/08/29 01:59:49;;;;;;;4.90;1.50;;;14.90;99.90;;;;;;5056284;28;37734;-77
2022/08/29 02:02:24;;;;;;;2.30;1.40;;;14.90;99.90;;;;;;5057160;28;38778;-78
2022/08/29 02:04:50;;;;;;;3.78;1.58;;;14.90;99.90;;;;;;5063739;28;39179;-78
2022/08/29 02:07:18;;;;;;;2.33;1.20;;;14.80;99.90;;;;;;5055959;28;38033;-77
2022/08/29 02:09:45;;;;;;;4.40;1.75;;;14.80;99.90;;;;;;5051809;28;36948;-77
2022/08/29 02:12:13;;;;;;;5.35;2.10;;;14.80;99.90;;;;;;5061594;28;39094;-77
2022/08/29 02:14:40;;;;;;;3.15;1.88;;;14.80;99.90;;;;;;5034746;28;38329;-78
2022/08/29 02:17:07;;;;;;;3.15;1.40;;;14.70;99.90;;;;;;5036972;28;36541;-78
2022/08/29 02:19:34;;;;;;;3.67;1.70;;;14.70;99.90;;;;;;5035350;28;38547;-77
2022/08/29 02:22:01;;;;;;;2.05;1.35;;;14.70;99.90;;;;;;5076259;28;38903;-77
2022/08/29 02:24:28;;;;;;;3.38;1.95;;;14.60;99.90;;;;;;5065461;28;46984;-77
2022/08/29 02:26:55;;;;;;;2.63;1.40;;;14.60;99.90;;;;;;5055435;28;38237;-77
2022/08/29 02:29:22;;;;;;;2.55;1.73;;;14.60;99.90;;;;;;5051123;28;38911;-78
2022/08/29 02:31:48;;;;;;;3.10;1.77;;;14.60;99.90;;;;;;5073088;28;38787;-77
2022/08/29 02:34:14;;;;;;;4.53;1.40;;;14.50;99.90;;;;;;5071501;28;38837;-78
2022/08/29 02:36:40;;;;;;;2.65;1.50;;;14.50;99.90;;;;;;5072327;28;37679;-78
2022/08/29 02:39:07;;;;;;;2.58;1.35;;;14.50;99.90;;;;;;5063180;28;37126;-77
2022/08/29 02:41:34;;;;;;;3.53;1.60;;;14.50;99.90;;;;;;5081308;28;38910;-77
2022/08/29 02:44:01;;;;;;;3.08;1.60;;;14.50;99.90;;;;;;5063639;28;37531;-77
2022/08/29 02:46:27;;;;;;;3.17;1.45;;;14.50;99.90;;;;;;5063937;28;48295;-78
2022/08/29 02:48:54;;;;;;;2.15;1.60;;;14.50;99.90;;;;;;5069952;28;35837;-78
2022/08/29 02:51:26;;;;;;;2.10;1.70;;;14.40;99.90;;;;;;5058744;28;39834;-78
2022/08/29 02:53:53;;;;;;;;;;;14.40;99.90;;;;;;5060186;28;38967;-77
2022/08/29 02:56:20;;;;;;;5.35;1.90;;;14.40;99.90;;;;;;5055583;28;36273;-79
2022/08/29 02:58:48;;;;;;;3.75;1.42;;;14.40;99.90;;;;;;5061682;28;38604;-78
2022/08/29 03:01:16;;;;;;;2.35;1.40;;;14.40;99.90;;;;;;5060026;28;39836;-78
2022/08/29 03:03:42;;;;;;;2.63;1.60;;;14.40;99.90;;;;;;5057291;28;39924;-78
2022/08/29 03:06:08;;;;;;;2.60;2.00;;;14.30;99.90;;;;;;5061097;28;38108;-78
2022/08/29 03:08:38;;;;;;;2.22;1.60;;;14.20;99.90;;;;;;5047015;28;35003;-77
2022/08/29 03:11:04;;;;;;;2.35;1.70;;;14.20;99.90;;;;;;5026742;28;39695;-78
2022/08/29 03:13:32;;;;;;;3.33;1.50;;;14.20;99.90;;;;;;5035723;28;36065;-77
2022/08/29 03:15:58;;;;;;;3.22;1.50;;;14.10;99.90;;;;;;5035772;28;36427;-77
2022/08/29 03:18:25;;;;;;;3.60;1.70;;;14.10;99.90;;;;;;5048942;28;37425;-77
2022/08/29 03:20:52;;;;;;;3.85;2.00;;;14.10;99.90;;;;;;5037314;28;38908;-77
2022/08/29 03:23:18;;;;;;;2.97;1.55;;;14.00;99.90;;;;;;5053643;28;39133;-77
2022/08/29 03:25:45;;;;;;;6.40;2.20;;;14.00;99.90;;;;;;5034061;28;38259;-78
2022/08/29 03:28:11;;;;;;;4.28;1.67;;;13.90;99.90;;;;;;5031853;28;35969;-78
2022/08/29 03:30:38;;;;;;;3.17;1.27;;;13.90;99.90;;;;;;5054077;28;39782;-78
2022/08/29 03:33:04;;;;;;;2.95;1.70;;;13.90;99.90;;;;;;5034329;28;39953;-78
2022/08/29 03:35:30;;;;;;;3.58;1.80;;;13.90;99.90;;;;;;5048438;28;37520;-78
2022/08/29 03:37:57;;;;;;;3.70;1.80;;;13.80;99.90;;;;;;5053734;28;37134;-78
2022/08/29 03:40:24;;;;;;;4.07;1.60;;;13.80;99.90;;;;;;5041316;28;37750;-78
2022/08/29 03:42:51;;;;;;;4.78;1.75;;;13.80;99.90;;;;;;5039562;28;39862;-78
2022/08/29 03:45:18;;;;;;;2.70;1.30;;;13.80;99.90;;;;;;5038772;28;38297;-77
2022/08/29 03:47:44;;;;;;;2.88;1.50;;;13.80;99.90;;;;;;5048869;28;40469;-77
2022/08/29 03:50:13;;;;;;;2.67;1.70;;;13.80;99.90;;;;;;5035999;28;38704;-77
2022/08/29 03:52:42;;;;;;;2.42;1.60;;;13.80;99.90;;;;;;5058543;28;38243;-77
2022/08/29 03:55:10;;;;;;;4.07;1.40;;;13.80;99.90;;;;;;5040866;28;39354;-77
2022/08/29 03:57:36;;;;;;;4.05;1.70;;;13.70;99.90;;;;;;5029102;28;37566;-77
2022/08/29 04:00:12;;;;;;;2.28;1.70;;;13.70;99.90;;;;;;5032440;28;39231;-77
2022/08/29 04:02:39;;;;;;;4.10;1.77;;;13.70;99.90;;;;;;5050420;28;48623;-76
2022/08/29 04:05:06;;;;;;;2.15;1.58;;;13.70;99.90;;;;;;5063689;28;38954;-77
2022/08/29 04:07:56;;;;;;;4.28;1.80;;;13.70;99.90;;;;;;5074315;28;37684;-77
2022/08/29 04:10:28;;;;;;;3.85;2.03;;;13.70;99.90;;;;;;5063781;28;38818;-77
2022/08/29 04:12:56;;;;;;;3.67;1.98;;;13.70;99.90;;;;;;5065218;28;39879;-77
2022/08/29 04:15:25;;;;;;;3.08;1.65;;;13.70;99.90;;;;;;5078311;28;37188;-77
2022/08/29 04:17:56;;;;;;;5.50;2.00;;;13.70;99.90;;;;;;5073068;28;38213;-77
2022/08/29 04:20:25;;;;;;;5.05;1.70;;;13.70;99.90;;;;;;5055399;28;40503;-77
2022/08/29 04:22:52;;;;;;;2.85;1.60;;;13.70;99.90;;;;;;5067460;28;37869;-77
2022/08/29 04:25:19;;;;;;;4.03;1.67;;;13.70;99.90;;;;;;5076320;28;37292;-77
2022/08/29 04:27:45;;;;;;;2.90;1.70;;;13.70;99.90;;;;;;5056615;28;38520;-77
2022/08/29 04:30:15;;;;;;;2.65;1.60;;;13.70;99.90;;;;;;5077166;28;38855;-79
2022/08/29 04:32:42;;;;;;;3.90;2.03;;;13.70;99.90;;;;;;5055360;28;39114;-77
2022/08/29 04:35:11;;;;;;;5.10;2.20;;;13.70;99.90;;;;;;5075877;28;37714;-76
2022/08/29 04:37:38;;;;;;;4.70;2.20;;;13.70;99.90;;;;;;5067816;28;37272;-77
2022/08/29 04:40:07;;;;;;;3.20;1.77;;;13.70;99.90;;;;;;5057582;28;39743;-76
2022/08/29 04:42:36;;;;;;;4.35;1.88;;;13.70;99.90;;;;;;5073989;28;39350;-77
2022/08/29 04:45:03;;;;;;;2.80;1.90;;;13.70;99.90;;;;;;5076459;28;38197;-77
2022/08/29 04:47:30;;;;;;;3.03;1.70;;;13.70;99.90;;;;;;5075409;28;48043;-77
2022/08/29 04:49:56;;;;;;;3.42;1.85;;;13.80;99.90;;;;;;5059717;28;38312;-77
2022/08/29 04:52:22;;;;;;;4.65;1.73;;;13.80;99.90;;;;;;5050646;28;38771;-76
2022/08/29 04:54:49;;;;;;;3.88;2.33;;;13.70;99.90;;;;;;5060166;28;37432;-77
2022/08/29 04:57:15;;;;;;;3.53;1.90;;;13.80;99.90;;;;;;5059037;28;38662;-77
2022/08/29 04:59:41;;;;;;;3.45;1.92;;;13.80;99.90;;;;;;5056355;28;37935;-76
2022/08/29 05:02:07;;;;;;;5.50;2.30;;;13.80;99.90;;;;;;5066216;28;39308;-76
2022/08/29 05:04:33;;;;;;;4.00;2.20;;;13.80;99.90;;;;;;5063029;28;37801;-78
2022/08/29 05:06:59;;;;;;;4.00;1.92;;;13.70;99.90;;;;;;5045747;28;38042;-78
2022/08/29 05:09:26;;;;;;;2.15;1.75;;;13.70;99.90;;;;;;5054251;28;39244;-79
2022/08/29 05:11:52;;;;;;;4.47;2.08;;;13.90;99.90;;;;;;5052602;28;39916;-78
2022/08/29 05:14:18;;;;;;;5.40;2.33;;;13.90;99.90;;;;;;5061393;28;37541;-79
2022/08/29 05:16:45;;;;;;;2.83;1.98;;;13.90;99.90;;;;;;5051063;28;37775;-79
2022/08/29 05:19:11;;;;;;;8.13;2.22;;;13.90;99.90;;;;;;5060343;28;40123;-79
2022/08/29 05:21:38;;;;;;;6.22;2.45;;;13.90;99.90;;;;;;5055037;28;38738;-76
2022/08/29 05:24:07;;;;;;;4.97;2.10;;;13.90;99.90;;;;;;5069889;28;38858;-77
2022/08/29 05:26:36;;;;;;;5.53;2.30;;;13.90;99.90;;;;;;5064069;28;38079;-77
2022/08/29 05:29:06;;;;;;;3.05;2.15;;;13.90;99.90;;;;;;5075998;28;39466;-77
2022/08/29 05:31:32;;;;;;;2.70;1.83;;;13.90;99.90;;;;;;5067577;28;47865;-78
2022/08/29 05:33:58;;;;;;;6.78;2.20;;;13.90;99.90;;;;;;5067771;28;37389;-78
2022/08/29 05:36:24;;;;;;;4.80;2.00;;;13.90;99.90;;;;;;5054665;28;36001;-78
2022/08/29 05:38:50;;;;;;;3.13;2.22;;;13.90;99.90;;;;;;5068702;28;39393;-78
2022/08/29 05:41:17;;;;;;;4.10;1.88;;;13.90;99.90;;;;;;5047272;28;37858;-78
2022/08/29 05:43:44;;;;;;;4.00;2.45;;;13.90;99.90;;;;;;5046083;28;39177;-78
2022/08/29 05:46:10;;;;;;;3.97;2.53;;;14.00;99.90;;;;;;5070405;28;37742;-77
2022/08/29 05:48:39;;;;;;;6.97;2.72;;;14.00;99.90;;;;;;5073103;28;38442;-78
2022/08/29 05:51:06;;;;;;;4.63;2.70;;;14.00;99.90;;;;;;5075041;28;38614;-77
2022/08/29 05:53:33;;;;;;;3.58;2.25;;;14.10;99.90;;;;;;5053358;28;38640;-77
2022/08/29 05:55:59;;;;;;;4.25;2.75;;;14.10;99.90;;;;;;5069468;28;36124;-77
2022/08/29 05:58:27;;;;;;;3.50;2.80;;;14.20;99.90;;;;;;5053535;28;37519;-79
2022/08/29 06:00:53;;;;;;;3.90;2.75;;;14.20;99.90;;;;;;5047955;28;40087;-80
2022/08/29 06:03:19;;;;;;;5.30;2.47;;;14.30;99.90;;;;;;5065153;28;37749;-80
2022/08/29 06:05:49;;;;;;;3.28;2.00;;;14.40;99.90;;;;;;5063530;28;37899;-79
2022/08/29 06:08:16;;;;;;;4.72;2.47;;;14.50;99.90;;;;;;5072530;28;39875;-78
2022/08/29 06:10:44;;;;;;;4.70;2.83;;;14.70;99.90;;;;;;5073683;28;39098;-77
2022/08/29 06:13:11;;;;;;;4.57;2.60;;;14.70;99.90;;;;;;5066524;28;37763;-76
2022/08/29 06:15:37;;;;;;;4.63;2.22;;;14.90;99.90;;;;;;5073992;28;37463;-77
2022/08/29 06:18:03;;;;;;;5.45;2.33;;;14.90;99.90;;;;;;5078271;28;40400;-77
2022/08/29 06:20:30;;;;;;;4.65;2.50;;;15.00;99.90;;;;;;5076875;28;37914;-77
2022/08/29 06:22:57;;;;;;;5.18;2.00;;;15.10;99.90;;;;;;5064639;28;20529;-75
2022/08/29 06:25:23;;;;;;;3.15;2.15;;;15.10;99.90;;;;;;5059401;28;37669;-76
2022/08/29 06:27:53;;;;;;;4.72;2.30;;;15.20;99.90;;;;;;5055004;28;39529;-77
2022/08/29 06:30:19;;;;;;;4.50;2.35;;;15.30;99.90;;;;;;5060616;28;39818;-76
2022/08/29 06:32:45;;;;;;;6.80;2.28;;;15.40;99.90;;;;;;5074771;28;39860;-76
2022/08/29 06:35:11;;;;;;;4.45;2.22;;;15.40;99.90;;;;;;5054451;28;36740;-76
2022/08/29 06:37:37;;;;;;;2.65;2.03;;;15.50;99.90;;;;;;5071353;28;39897;-76
2022/08/29 06:40:04;;;;;;;5.75;2.38;;;15.60;99.90;;;;;;5053498;28;38662;-75
2022/08/29 06:42:30;;;;;;;5.15;2.50;;;15.70;99.90;;;;;;5075835;28;48576;-76
2022/08/29 06:44:56;;;;;;;4.53;2.55;;;15.80;99.90;;;;;;5076896;28;36947;-76
2022/08/29 06:47:22;;;;;;;5.18;2.60;;;15.90;99.90;;;;;;5076366;28;38639;-76
2022/08/29 06:49:48;;;;;;;6.85;3.40;;;16.00;99.90;;;;;;5073403;28;38392;-76
2022/08/29 06:52:14;;;;;;;4.03;2.47;;;16.00;99.90;;;;;;5080712;28;38667;-76
2022/08/29 06:54:41;;;;;;;5.95;2.45;;;16.20;99.90;;;;;;5063669;28;36840;-76
2022/08/29 06:57:07;;;;;;;7.95;2.58;;;16.30;99.90;;;;;;5077627;28;38826;-75
2022/08/29 06:59:33;;;;;;;5.90;3.00;;;16.40;99.90;;;;;;5061696;28;37540;-76
2022/08/29 07:02:00;;;;;;;6.28;3.00;;;16.50;99.90;;;;;;5070004;28;37823;-77
2022/08/29 07:04:26;;;;;;;6.32;2.90;;;16.60;99.90;;;;;;5081965;28;38148;-76
2022/08/29 07:06:52;;;;;;;7.60;2.85;;;16.70;99.90;;;;;;5072649;28;38971;-76
2022/08/29 07:09:18;;;;;;;3.55;2.40;;;16.70;99.90;;;;;;5084711;28;37499;-76
2022/08/29 07:11:44;;;;;;;5.22;2.83;;;16.70;99.90;;;;;;5063088;28;39395;-76
2022/08/29 07:14:11;;;;;;;7.75;3.05;;;16.70;99.90;;;;;;5074305;28;35156;-76
2022/08/29 07:16:38;;;;;;;7.50;2.65;;;16.90;99.90;;;;;;5071852;28;39289;-76
2022/08/29 07:19:05;;;;;;;6.70;2.92;;;17.00;99.90;;;;;;5057435;28;39440;-76
2022/08/29 07:21:32;;;;;;;9.95;4.78;;;17.20;99.90;;;;;;5077018;28;37328;-76
2022/08/29 07:23:58;;;;;;;9.43;3.47;;;17.20;99.90;;;;;;5068015;28;37062;-76
2022/08/29 07:26:31;;;;;;;6.03;3.22;;;17.20;99.90;;;;;;5073823;28;38849;-75
2022/08/29 07:29:00;;;;;;;7.78;3.22;;;17.20;99.90;;;;;;5076163;28;39287;-76
2022/08/29 07:31:27;;;;;;;6.93;2.90;;;17.20;99.90;;;;;;5058907;28;37648;-76
2022/08/29 07:33:53;;;;;;;10.75;3.67;;;17.40;99.90;;;;;;5062706;28;39293;-76
2022/08/29 07:36:19;;;;;;;11.52;3.65;;;17.30;99.90;;;;;;5076294;28;39361;-76
2022/08/29 07:38:45;;;;;;;10.30;3.60;;;17.20;99.90;;;;;;5073666;28;39228;-76
2022/08/29 07:41:13;;;;;;;5.75;3.08;;;17.20;99.90;;;;;;5053562;28;36644;-75
2022/08/29 07:43:40;;;;;;;6.28;3.10;;;17.30;99.90;;;;;;5074504;28;38187;-76
2022/08/29 07:46:08;;;;;;;7.90;4.00;;;17.20;99.90;;;;;;5082820;28;39586;-76
2022/08/29 07:48:35;;;;;;;9.43;3.33;;;17.40;99.90;;;;;;5058889;28;38578;-75
2022/08/29 07:51:01;;;;;;;8.07;3.47;;;17.40;99.90;;;;;;5058197;28;37769;-75
2022/08/29 07:53:27;;;;;;;8.23;3.67;;;17.30;99.90;;;;;;5071301;28;35761;-75
2022/08/29 07:55:53;;;;;;;5.97;3.83;;;17.40;99.90;;;;;;5079896;28;39787;-75
2022/08/29 07:58:19;;;;;;;9.90;3.88;;;17.50;99.90;;;;;;5055642;28;37195;-75
2022/08/29 08:00:45;;;;;;;6.93;2.95;;;17.60;99.90;;;;;;5071445;28;38054;-75
2022/08/29 08:03:13;;;;;;;5.70;2.83;;;17.70;99.90;;;;;;5055326;28;38119;-75
2022/08/29 08:05:39;;;;;;;6.93;3.42;;;17.80;99.90;;;;;;5076320;28;37910;-76
2022/08/29 08:08:08;;;;;;;7.85;3.88;;;18.00;99.90;;;;;;5063530;28;39117;-76
2022/08/29 08:10:36;;;;;;;10.45;3.78;;;18.20;99.90;;;;;;5058304;28;38472;-75
2022/08/29 08:13:02;;;;;;;6.55;3.65;;;17.90;99.90;;;;;;5075081;28;37314;-76
2022/08/29 08:15:29;;;;;;;6.00;3.80;;;17.90;99.90;;;;;;5056551;28;39430;-76
2022/08/29 08:17:55;;;;;;;10.45;3.47;;;18.10;99.90;;;;;;5072785;28;38099;-75
2022/08/29 08:20:21;;;;;;;7.78;3.42;;;18.20;99.90;;;;;;5054227;28;38565;-75
2022/08/29 08:22:47;;;;;;;5.25;3.20;;;18.30;99.90;;;;;;5078597;28;38523;-75
2022/08/29 08:25:13;;;;;;;5.35;3.10;;;18.30;99.90;;;;;;5070918;28;39377;-75
2022/08/29 08:27:39;;;;;;;7.95;3.60;;;18.50;99.90;;;;;;5074605;28;38132;-75
2022/08/29 08:30:06;;;;;;;7.60;3.85;;;18.50;99.90;;;;;;5060645;28;38569;-75
2022/08/29 08:32:32;;;;;;;7.22;3.70;;;18.40;99.90;;;;;;5076048;28;36599;-75
2022/08/29 08:34:58;;;;;;;6.13;3.28;;;18.20;99.90;;;;;;5075242;28;38956;-75
2022/08/29 08:37:24;;;;;;;7.43;3.72;;;18.40;99.90;;;;;;5074831;28;39108;-74
2022/08/29 08:39:55;;;;;;;10.43;3.50;;;18.40;99.90;;;;;;5078954;28;37779;-75
2022/08/29 08:42:42;;;;;;;6.72;3.17;;;18.60;99.90;;;;;;5074975;28;37106;-76
2022/08/29 08:45:21;;;;;;;4.45;2.90;;;18.70;99.90;;;;;;5075455;28;39333;-76
2022/08/29 08:48:01;;;;;;;3.92;2.90;;;18.90;99.90;;;;;;5074446;28;38075;-75
2022/08/29 08:50:36;;;;;;;8.57;3.60;;;19.20;99.90;;;;;;5069816;28;48574;-75
2022/08/29 08:53:08;;;;;;;6.10;3.40;;;19.30;99.90;;;;;;5073322;28;37222;-76
2022/08/29 08:55:44;;;;;;;6.18;3.42;;;19.40;99.90;;;;;;5080478;28;38670;-73
2022/08/29 08:58:16;;;;;;;6.30;3.35;;;19.20;99.90;;;;;;5079065;28;38548;-76
2022/08/29 09:01:25;;;;;;;4.32;3.05;;;19.00;99.90;;;;;;5066290;28;38669;-74
2022/08/29 09:04:09;;;;;;;8.05;3.47;;;19.10;99.90;;;;;;5052938;28;47106;-74
2022/08/29 09:06:54;;;;;;;4.90;2.75;;;19.30;99.90;;;;;;5080773;28;49453;-74
2022/08/29 09:09:29;;;;;;;6.90;3.05;;;19.40;99.90;;;;;;5084918;28;39389;-75
2022/08/29 09:12:07;;;;;;;7.38;3.00;;;19.60;99.90;;;;;;5078434;28;37923;-74
2022/08/29 09:14:45;;;;;;;5.60;3.08;;;19.80;99.90;;;;;;5071787;28;49160;-75
2022/08/29 09:17:29;;;;;;;7.78;3.58;;;19.90;99.90;;;;;;5064646;28;37549;-75
2022/08/29 09:19:56;;;;;;;8.65;3.75;;;20.30;99.90;;;;;;5073242;28;37668;-75
2022/08/29 09:22:28;;;;;;;4.97;3.17;;;20.30;99.90;;;;;;5080091;28;37789;-75
2022/08/29 09:24:59;;;;;;;;;;;20.50;99.90;;;;;;5072133;28;36688;-75
2022/08/29 09:27:28;;;;;;;5.85;3.13;;;20.30;99.90;;;;;;5048560;28;39741;-76
2022/08/29 09:30:13;;;;;;;8.90;3.50;;;20.10;99.90;;;;;;5070533;28;39932;-75
2022/08/29 09:33:15;;;;;;;5.03;2.80;;;20.00;99.90;;;;;;5078055;28;48850;-75
2022/08/29 09:35:48;;;;;;;7.82;3.38;;;20.00;99.90;;;;;;5007861;28;47326;-75
2022/08/29 09:38:16;;;;;;;8.15;3.55;;;20.10;99.90;;;;;;5046760;28;39926;-75
2022/08/29 09:40:59;;;;;;;5.63;3.40;;;20.20;99.90;;;;;;5056945;28;38498;-75
2022/08/29 09:43:37;;;;;;;;;;;20.30;99.90;;;;;;5052765;28;37558;-75
2022/08/29 09:46:22;;;;;;;7.50;3.30;;;20.40;99.90;;;;;;5038486;28;36336;-75
2022/08/29 09:48:58;;;;;;;6.90;2.97;;;20.40;99.90;;;;;;5050103;28;39629;-75
2022/08/29 09:51:31;;;;;;;5.35;2.95;;;20.50;99.90;;;;;;5034831;28;38760;-75
2022/08/29 09:54:12;;;;;;;5.78;3.20;;;20.60;99.90;;;;;;5052617;28;37240;-75
2022/08/29 09:56:51;;;;;;;5.68;2.97;;;20.70;99.90;;;;;;5047882;28;49234;-75
2022/08/29 09:59:32;;;;;;;4.90;3.13;;;20.80;99.90;;;;;;5046592;28;38946;-77
2022/08/29 10:02:20;;;;;;;4.88;3.10;;;20.90;99.90;;;;;;5044483;28;39375;-77
2022/08/29 10:04:51;;;;;;;8.70;2.58;;;21.00;99.90;;;;;;5053815;28;47016;-76
2022/08/29 10:07:21;;;;;;;5.32;2.90;;;20.90;99.90;;;;;;5052983;28;35946;-77
2022/08/29 10:09:56;;;;;;;4.75;2.70;;;20.90;99.90;;;;;;5070174;28;38550;-76
2022/08/29 10:12:50;;;;;;;4.93;2.95;;;20.90;99.90;;;;;;5055747;28;38560;-76
2022/08/29 10:15:52;;;;;;;4.38;2.33;;;21.00;99.90;;;;;;5024872;28;37253;-76
2022/08/29 10:18:41;;;;;;;4.17;2.30;;;21.40;99.90;;;;;;5011606;28;37463;-77
2022/08/29 10:21:28;;;;;;;6.88;2.85;;;21.80;99.90;;;;;;5066157;28;39223;-77
2022/08/29 10:24:32;;;;;;;6.35;2.63;;;21.90;99.90;;;;;;5054513;28;37912;-77
2022/08/29 10:26:59;;;;;;;6.18;2.40;;;22.30;99.90;;;;;;5045527;28;47268;-77
2022/08/29 10:29:58;;;;;;;7.03;3.10;;;22.70;99.90;;;;;;5066364;28;37726;-77
2022/08/29 10:32:53;;;;;;;4.50;2.88;;;23.40;99.90;;;;;;5069536;28;38327;-77
2022/08/29 10:35:29;;;;;;;5.95;2.78;;;23.70;99.90;;;;;;5078188;28;38576;-77
2022/08/29 10:38:04;;;;;;;4.07;2.58;;;23.80;99.90;;;;;;5067088;28;38369;-75
2022/08/29 10:40:38;;;;;;;8.25;2.83;;;23.90;99.90;;;;;;5083040;28;48458;-75
2022/08/29 10:43:27;;;;;;;6.53;2.70;;;23.50;99.90;;;;;;5073241;28;38614;-77
2022/08/29 10:46:15;;;;;;;9.95;2.58;;;22.80;99.90;;;;;;5079470;28;38706;-77
2022/08/29 10:49:01;;;;;;;5.68;3.38;;;22.50;99.90;;;;;;5068473;28;46951;-77
2022/08/29 10:51:45;;;;;;;9.30;3.50;;;22.30;99.90;;;;;;5062855;28;47261;-77
2022/08/29 10:54:29;;;;;;;4.90;3.10;;;22.10;99.90;;;;;;5082735;28;38888;-77
2022/08/29 10:56:56;;;;;;;5.43;2.97;;;22.10;99.90;;;;;;5070343;28;39054;-77
2022/08/29 10:59:43;;;;;;;6.25;2.90;;;22.00;99.90;;;;;;5090473;28;38514;-77
2022/08/29 11:02:23;;;;;;;7.70;2.92;;;21.80;99.90;;;;;;5076421;28;37788;-77
2022/08/29 11:04:58;;;;;;;9.23;3.33;;;21.70;99.90;;;;;;5066800;28;39752;-77
2022/08/29 11:07:35;;;;;;;6.28;3.40;;;21.70;99.90;;;;;;5079234;28;39595;-76
2022/08/29 11:10:13;;;;;;;8.32;3.17;;;21.60;99.90;;;;;;5070727;28;39175;-77
2022/08/29 11:12:45;;;;;;;8.45;3.53;;;21.60;99.90;;;;;;5062463;28;47300;-77
2022/08/29 11:15:37;;;;;;;6.95;3.00;;;21.80;99.90;;;;;;5047195;28;40349;-77
2022/08/29 11:18:11;;;;;;;8.02;3.25;;;21.80;99.90;;;;;;5030295;28;39747;-77
2022/08/29 11:20:44;;;;;;;5.85;2.92;;;21.70;99.90;;;;;;5050023;28;38437;-77
2022/08/29 11:23:20;;;;;;;6.93;3.17;;;21.60;99.90;;;;;;5062142;28;37412;-77
2022/08/29 11:25:46;;;;;;;4.40;3.15;;;21.60;99.90;;;;;;5042202;28;40909;-77
2022/08/29 11:28:40;;;;;;;8.52;3.70;;;22.10;99.90;;;;;;5032251;28;38303;-77
2022/08/29 11:31:21;;;;;;;5.72;3.00;;;22.90;99.90;;;;;;5059345;28;37401;-77
2022/08/29 11:34:16;;;;;;;4.68;2.55;;;23.50;99.90;;;;;;5039520;28;38124;-76
2022/08/29 11:36:51;;;;;;;7.80;3.10;;;23.10;99.90;;;;;;5046954;28;48445;-76
2022/08/29 11:39:55;;;;;;;6.70;2.47;;;22.50;99.90;;;;;;5069389;28;39648;-76
2022/08/29 11:42:27;;;;;;;8.02;3.10;;;22.10;99.90;;;;;;5078283;28;38042;-76
2022/08/29 11:44:57;;;;;;;4.10;2.70;;;22.00;99.90;;;;;;5053111;28;37610;-76
2022/08/29 11:47:49;;;;;;;10.85;3.60;;;22.00;99.90;;;;;;5081784;28;39422;-76
2022/08/29 11:50:15;;;;;;;6.18;2.88;;;21.80;99.90;;;;;;5065311;28;39053;-76
2022/08/29 11:52:50;;;;;;;6.80;2.90;;;21.50;99.90;;;;;;5065978;28;38546;-76
2022/08/29 11:55:25;;;;;;;5.53;2.72;;;21.40;99.90;;;;;;5082397;28;36548;-76
2022/08/29 11:57:55;;;;;;;5.90;2.75;;;21.30;99.90;;;;;;5076959;28;39024;-76
2022/08/29 12:00:43;;;;;;;6.95;2.80;;;21.30;99.90;;;;;;5078107;28;38543;-76
2022/08/29 12:03:31;;;;;;;7.38;3.00;;;21.30;99.90;;;;;;5071492;28;37486;-76
2022/08/29 12:06:19;;;;;;;5.43;2.80;;;21.50;99.90;;;;;;5066518;28;37705;-77
2022/08/29 12:09:17;;;;;;;5.68;3.35;;;21.50;99.90;;;;;;5080601;28;49020;-76
2022/08/29 12:12:04;;;;;;;6.10;3.05;;;21.60;99.90;;;;;;5055684;28;47619;-77
2022/08/29 12:14:37;;;;;;;9.70;3.78;;;21.60;99.90;;;;;;5074990;28;48828;-77
2022/08/29 12:17:10;;;;;;;8.68;3.47;;;21.60;99.90;;;;;;5057316;28;39513;-77
2022/08/29 12:19:52;;;;;;;7.03;3.90;;;21.70;99.90;;;;;;5073713;28;40286;-77
2022/08/29 12:23:00;;;;;;;7.75;3.63;;;22.10;99.90;;;;;;5075738;28;37810;-77
2022/08/29 12:25:26;;;;;;;7.22;3.20;;;22.30;99.90;;;;;;5066230;28;40447;-77
2022/08/29 12:28:20;;;;;;;6.60;3.40;;;22.60;99.90;;;;;;5061857;28;37419;-77
2022/08/29 12:30:57;;;;;;;6.22;3.50;;;22.50;99.90;;;;;;5073757;28;49984;-77
2022/08/29 12:33:44;;;;;;;7.75;3.15;;;22.90;99.90;;;;;;5074010;28;38292;-77
2022/08/29 12:36:32;;;;;;;7.32;3.30;;;23.40;99.90;;;;;;5076399;28;38222;-77
2022/08/29 12:39:16;;;;;;;6.22;3.13;;;23.70;99.90;;;;;;5073920;28;38727;-77
2022/08/29 12:41:49;;;;;;;5.13;3.03;;;23.50;99.90;;;;;;5081055;28;48860;-77
2022/08/29 12:44:23;;;;;;;6.18;2.80;;;23.20;99.90;;;;;;5075693;28;39636;-76
2022/08/29 12:46:54;;;;;;;6.35;3.00;;;22.90;99.90;;;;;;5074942;28;37255;-77
2022/08/29 12:49:27;;;;;;;3.67;2.60;;;23.30;99.90;;;;;;5066464;28;37438;-77
2022/08/29 12:51:59;;;;;;;4.70;2.90;;;23.60;99.90;;;;;;5065664;28;39545;-77
2022/08/29 12:54:37;;;;;;;3.05;2.28;;;24.00;99.90;;;;;;5068309;28;38411;-77
2022/08/29 12:57:35;;;;;;;4.30;2.55;;;24.30;99.90;;;;;;5078248;28;38556;-77
2022/08/29 13:00:09;;;;;;;5.22;2.50;;;24.10;99.90;;;;;;5071809;28;37232;-77
2022/08/29 13:02:36;;;;;;;5.85;2.78;;;24.00;99.90;;;;;;5066993;28;46788;-77
2022/08/29 13:05:18;;;;;;;5.07;2.47;;;23.90;99.90;;;;;;5080114;28;37940;-76
2022/08/29 13:07:55;;;;;;;7.75;2.70;;;23.80;99.90;;;;;;5070246;28;38919;-77
2022/08/29 13:10:21;;;;;;;4.72;2.35;;;23.70;99.90;;;;;;5064632;28;38827;-77
2022/08/29 13:12:47;;;;;;;4.38;2.78;;;24.10;99.90;;;;;;5075252;28;39494;-77